Richmond Township, Michigan
Current Conditions -  °F | °C
As of 10:17 AM on Monday 24 Nov 2014 (Local Time) from KPHN Reporting Station
Overcast Overcast  
Wind Chill: 54°   Ceiling: 7000
Heat Index: 54°   Visibility: 10mi
Dew Point: 52°   Wind: 14mph
Humidity: 94%   Direction: 190°S
Pressure: 29.12"   Gusts: 22mph
Location:  42.8496°N, 82.798°W
Report Text: KPHN 241517Z AUTO 19012G19KT 10SM SCT010 BKN070 OVC085 12/11 A2912 RMK AO2
Loading
Personal Weather Stations






























Interactive Weather Map New forecast layout! Learn more

10-Day Weather Forecast

Advertisements
Track Severe Weather on mobile